sensor_id;sensor_type;location;lat;lon;timestamp;P1;durP1;ratioP1;P2;durP2;ratioP2
72791;SDS011;60907;53.268;8.764;2024-01-30T00:01:16;15.20;;;8.20;;
72791;SDS011;60907;53.268;8.764;2024-01-30T00:03:42;15.80;;;8.17;;
72791;SDS011;60907;53.268;8.764;2024-01-30T00:06:11;15.40;;;8.57;;
72791;SDS011;60907;53.268;8.764;2024-01-30T00:08:36;15.95;;;9.30;;
72791;SDS011;60907;53.268;8.764;2024-01-30T00:11:01;15.53;;;9.20;;
72791;SDS011;60907;53.268;8.764;2024-01-30T00:13:27;17.47;;;8.03;;
72791;SDS011;60907;53.268;8.764;2024-01-30T00:15:52;15.60;;;8.97;;
72791;SDS011;60907;53.268;8.764;2024-01-30T00:18:17;15.40;;;8.60;;
72791;SDS011;60907;53.268;8.764;2024-01-30T00:20:43;15.35;;;8.77;;
72791;SDS011;60907;53.268;8.764;2024-01-30T00:23:09;13.45;;;8.80;;
72791;SDS011;60907;53.268;8.764;2024-01-30T00:25:34;14.73;;;8.53;;
72791;SDS011;60907;53.268;8.764;2024-01-30T00:27:59;14.90;;;9.93;;
72791;SDS011;60907;53.268;8.764;2024-01-30T00:30:25;14.23;;;8.77;;
72791;SDS011;60907;53.268;8.764;2024-01-30T00:32:50;12.63;;;8.43;;
72791;SDS011;60907;53.268;8.764;2024-01-30T00:35:15;17.45;;;9.70;;
72791;SDS011;60907;53.268;8.764;2024-01-30T00:37:41;15.83;;;9.10;;
72791;SDS011;60907;53.268;8.764;2024-01-30T00:40:06;13.07;;;8.27;;
72791;SDS011;60907;53.268;8.764;2024-01-30T00:42:32;15.90;;;9.48;;
72791;SDS011;60907;53.268;8.764;2024-01-30T00:44:57;13.80;;;8.40;;
72791;SDS011;60907;53.268;8.764;2024-01-30T00:47:23;15.00;;;8.32;;
72791;SDS011;60907;53.268;8.764;2024-01-30T00:49:48;15.48;;;9.27;;
72791;SDS011;60907;53.268;8.764;2024-01-30T00:52:13;15.00;;;8.67;;
72791;SDS011;60907;53.268;8.764;2024-01-30T00:54:39;16.03;;;8.83;;
72791;SDS011;60907;53.268;8.764;2024-01-30T00:57:04;17.75;;;8.77;;
72791;SDS011;60907;53.268;8.764;2024-01-30T00:59:29;13.85;;;8.68;;
72791;SDS011;60907;53.268;8.764;2024-01-30T01:01:55;12.97;;;8.70;;
72791;SDS011;60907;53.268;8.764;2024-01-30T01:04:20;13.33;;;8.47;;
72791;SDS011;60907;53.268;8.764;2024-01-30T01:06:46;13.55;;;8.70;;
72791;SDS011;60907;53.268;8.764;2024-01-30T01:09:12;12.52;;;7.68;;
72791;SDS011;60907;53.268;8.764;2024-01-30T01:11:37;14.50;;;8.63;;
72791;SDS011;60907;53.268;8.764;2024-01-30T01:14:03;14.88;;;8.20;;
72791;SDS011;60907;53.268;8.764;2024-01-30T01:16:28;13.20;;;7.05;;
72791;SDS011;60907;53.268;8.764;2024-01-30T01:18:53;14.00;;;8.23;;
72791;SDS011;60907;53.268;8.764;2024-01-30T01:21:19;17.10;;;8.70;;
72791;SDS011;60907;53.268;8.764;2024-01-30T01:23:44;14.80;;;8.33;;
72791;SDS011;60907;53.268;8.764;2024-01-30T01:26:09;15.83;;;8.53;;
72791;SDS011;60907;53.268;8.764;2024-01-30T01:28:35;13.47;;;8.20;;
72791;SDS011;60907;53.268;8.764;2024-01-30T01:31:00;12.47;;;8.63;;
72791;SDS011;60907;53.268;8.764;2024-01-30T01:33:30;13.30;;;8.20;;
72791;SDS011;60907;53.268;8.764;2024-01-30T01:35:57;13.32;;;7.93;;
72791;SDS011;60907;53.268;8.764;2024-01-30T01:38:22;14.03;;;8.47;;
72791;SDS011;60907;53.268;8.764;2024-01-30T01:40:47;13.10;;;7.07;;
72791;SDS011;60907;53.268;8.764;2024-01-30T01:43:12;13.77;;;8.43;;
72791;SDS011;60907;53.268;8.764;2024-01-30T01:45:38;13.83;;;8.23;;
72791;SDS011;60907;53.268;8.764;2024-01-30T01:48:03;13.87;;;7.40;;
72791;SDS011;60907;53.268;8.764;2024-01-30T01:50:28;14.10;;;8.10;;
72791;SDS011;60907;53.268;8.764;2024-01-30T01:52:54;13.83;;;7.57;;
72791;SDS011;60907;53.268;8.764;2024-01-30T01:55:21;13.38;;;7.60;;
72791;SDS011;60907;53.268;8.764;2024-01-30T01:57:52;14.65;;;7.68;;
72791;SDS011;60907;53.268;8.764;2024-01-30T02:00:17;14.73;;;8.07;;
72791;SDS011;60907;53.268;8.764;2024-01-30T02:02:44;13.82;;;7.90;;
72791;SDS011;60907;53.268;8.764;2024-01-30T02:05:10;12.07;;;7.63;;
72791;SDS011;60907;53.268;8.764;2024-01-30T02:07:36;13.38;;;7.70;;
72791;SDS011;60907;53.268;8.764;2024-01-30T02:10:01;11.30;;;6.47;;
72791;SDS011;60907;53.268;8.764;2024-01-30T02:12:26;13.53;;;7.50;;
72791;SDS011;60907;53.268;8.764;2024-01-30T02:14:52;14.17;;;8.33;;
72791;SDS011;60907;53.268;8.764;2024-01-30T02:17:18;13.45;;;7.57;;
72791;SDS011;60907;53.268;8.764;2024-01-30T02:19:44;12.53;;;7.40;;
72791;SDS011;60907;53.268;8.764;2024-01-30T02:22:09;15.70;;;7.90;;
72791;SDS011;60907;53.268;8.764;2024-01-30T02:24:34;15.67;;;7.67;;
72791;SDS011;60907;53.268;8.764;2024-01-30T02:26:59;12.93;;;7.40;;
72791;SDS011;60907;53.268;8.764;2024-01-30T02:29:25;15.43;;;7.95;;
72791;SDS011;60907;53.268;8.764;2024-01-30T02:31:50;10.50;;;7.77;;
72791;SDS011;60907;53.268;8.764;2024-01-30T02:34:16;15.37;;;8.13;;
72791;SDS011;60907;53.268;8.764;2024-01-30T02:36:44;15.10;;;8.90;;
72791;SDS011;60907;53.268;8.764;2024-01-30T02:39:09;13.13;;;7.82;;
72791;SDS011;60907;53.268;8.764;2024-01-30T02:41:35;16.00;;;8.67;;
72791;SDS011;60907;53.268;8.764;2024-01-30T02:44:00;16.23;;;7.68;;
72791;SDS011;60907;53.268;8.764;2024-01-30T02:46:25;14.53;;;8.80;;
72791;SDS011;60907;53.268;8.764;2024-01-30T02:48:51;12.97;;;7.30;;
72791;SDS011;60907;53.268;8.764;2024-01-30T02:51:16;13.67;;;7.70;;
72791;SDS011;60907;53.268;8.764;2024-01-30T02:53:41;14.63;;;8.67;;
72791;SDS011;60907;53.268;8.764;2024-01-30T02:56:07;14.77;;;8.73;;
72791;SDS011;60907;53.268;8.764;2024-01-30T02:58:34;16.90;;;8.38;;
72791;SDS011;60907;53.268;8.764;2024-01-30T03:01:00;18.10;;;8.87;;
72791;SDS011;60907;53.268;8.764;2024-01-30T03:03:25;15.93;;;8.87;;
72791;SDS011;60907;53.268;8.764;2024-01-30T03:05:50;14.43;;;8.70;;
72791;SDS011;60907;53.268;8.764;2024-01-30T03:08:15;14.47;;;8.63;;
72791;SDS011;60907;53.268;8.764;2024-01-30T03:10:41;14.37;;;8.13;;
72791;SDS011;60907;53.268;8.764;2024-01-30T03:13:06;15.25;;;9.27;;
72791;SDS011;60907;53.268;8.764;2024-01-30T03:15:32;14.20;;;9.07;;
72791;SDS011;60907;53.268;8.764;2024-01-30T03:17:57;13.75;;;8.27;;
72791;SDS011;60907;53.268;8.764;2024-01-30T03:20:22;17.40;;;9.20;;
72791;SDS011;60907;53.268;8.764;2024-01-30T03:22:48;13.40;;;8.50;;
72791;SDS011;60907;53.268;8.764;2024-01-30T03:25:13;13.60;;;8.60;;
72791;SDS011;60907;53.268;8.764;2024-01-30T03:27:38;13.73;;;8.30;;
72791;SDS011;60907;53.268;8.764;2024-01-30T03:30:04;12.93;;;8.07;;
72791;SDS011;60907;53.268;8.764;2024-01-30T03:32:29;13.55;;;8.25;;
72791;SDS011;60907;53.268;8.764;2024-01-30T03:34:54;14.43;;;9.17;;
72791;SDS011;60907;53.268;8.764;2024-01-30T03:37:20;14.30;;;8.80;;
72791;SDS011;60907;53.268;8.764;2024-01-30T03:39:45;14.80;;;8.27;;
72791;SDS011;60907;53.268;8.764;2024-01-30T03:42:10;15.83;;;8.30;;
72791;SDS011;60907;53.268;8.764;2024-01-30T03:44:35;14.53;;;8.20;;
72791;SDS011;60907;53.268;8.764;2024-01-30T03:47:01;15.40;;;8.77;;
72791;SDS011;60907;53.268;8.764;2024-01-30T03:49:26;15.90;;;8.13;;
72791;SDS011;60907;53.268;8.764;2024-01-30T03:51:51;18.47;;;9.57;;
72791;SDS011;60907;53.268;8.764;2024-01-30T03:54:17;13.63;;;8.33;;
72791;SDS011;60907;53.268;8.764;2024-01-30T03:56:42;12.70;;;8.57;;
72791;SDS011;60907;53.268;8.764;2024-01-30T03:59:07;16.50;;;8.83;;
72791;SDS011;60907;53.268;8.764;2024-01-30T04:01:32;13.50;;;8.20;;
72791;SDS011;60907;53.268;8.764;2024-01-30T04:03:58;11.75;;;8.23;;
72791;SDS011;60907;53.268;8.764;2024-01-30T04:06:23;15.33;;;8.40;;
72791;SDS011;60907;53.268;8.764;2024-01-30T04:08:49;16.50;;;9.10;;
72791;SDS011;60907;53.268;8.764;2024-01-30T04:11:14;14.80;;;8.87;;
72791;SDS011;60907;53.268;8.764;2024-01-30T04:13:40;16.08;;;8.35;;
72791;SDS011;60907;53.268;8.764;2024-01-30T04:16:05;13.73;;;8.33;;
72791;SDS011;60907;53.268;8.764;2024-01-30T04:18:30;16.45;;;8.10;;
72791;SDS011;60907;53.268;8.764;2024-01-30T04:20:56;13.05;;;7.70;;
72791;SDS011;60907;53.268;8.764;2024-01-30T04:23:22;12.37;;;8.10;;
72791;SDS011;60907;53.268;8.764;2024-01-30T04:25:47;13.40;;;8.50;;
72791;SDS011;60907;53.268;8.764;2024-01-30T04:28:12;16.07;;;8.00;;
72791;SDS011;60907;53.268;8.764;2024-01-30T04:30:38;16.67;;;9.60;;
72791;SDS011;60907;53.268;8.764;2024-01-30T04:33:03;14.27;;;8.27;;
72791;SDS011;60907;53.268;8.764;2024-01-30T04:35:29;14.43;;;8.15;;
72791;SDS011;60907;53.268;8.764;2024-01-30T04:37:54;11.47;;;6.63;;
72791;SDS011;60907;53.268;8.764;2024-01-30T04:40:20;16.20;;;7.87;;
72791;SDS011;60907;53.268;8.764;2024-01-30T04:42:45;17.33;;;8.63;;
72791;SDS011;60907;53.268;8.764;2024-01-30T04:45:11;14.47;;;7.73;;
72791;SDS011;60907;53.268;8.764;2024-01-30T04:47:36;15.38;;;9.20;;
72791;SDS011;60907;53.268;8.764;2024-01-30T04:50:02;14.57;;;8.43;;
72791;SDS011;60907;53.268;8.764;2024-01-30T04:52:29;13.05;;;7.32;;
72791;SDS011;60907;53.268;8.764;2024-01-30T04:54:55;16.67;;;7.87;;
72791;SDS011;60907;53.268;8.764;2024-01-30T04:57:20;14.33;;;8.77;;
72791;SDS011;60907;53.268;8.764;2024-01-30T04:59:45;17.47;;;9.27;;
72791;SDS011;60907;53.268;8.764;2024-01-30T05:02:10;15.43;;;8.50;;
72791;SDS011;60907;53.268;8.764;2024-01-30T05:04:36;15.03;;;9.07;;
72791;SDS011;60907;53.268;8.764;2024-01-30T05:07:01;15.20;;;8.50;;
72791;SDS011;60907;53.268;8.764;2024-01-30T05:09:26;17.53;;;8.83;;
72791;SDS011;60907;53.268;8.764;2024-01-30T05:11:53;13.77;;;7.60;;
72791;SDS011;60907;53.268;8.764;2024-01-30T05:14:18;12.65;;;7.70;;
72791;SDS011;60907;53.268;8.764;2024-01-30T05:16:43;13.23;;;8.60;;
72791;SDS011;60907;53.268;8.764;2024-01-30T05:19:11;14.48;;;8.93;;
72791;SDS011;60907;53.268;8.764;2024-01-30T05:21:37;14.35;;;8.38;;
72791;SDS011;60907;53.268;8.764;2024-01-30T05:24:02;15.77;;;8.27;;
72791;SDS011;60907;53.268;8.764;2024-01-30T05:26:27;16.37;;;8.47;;
72791;SDS011;60907;53.268;8.764;2024-01-30T05:28:53;16.80;;;8.60;;
72791;SDS011;60907;53.268;8.764;2024-01-30T05:31:18;15.13;;;8.87;;
72791;SDS011;60907;53.268;8.764;2024-01-30T05:33:43;13.43;;;8.63;;
72791;SDS011;60907;53.268;8.764;2024-01-30T05:36:11;13.20;;;8.00;;
72791;SDS011;60907;53.268;8.764;2024-01-30T05:38:36;14.30;;;8.60;;
72791;SDS011;60907;53.268;8.764;2024-01-30T05:41:02;17.80;;;9.20;;
72791;SDS011;60907;53.268;8.764;2024-01-30T05:43:27;12.03;;;7.87;;
72791;SDS011;60907;53.268;8.764;2024-01-30T05:45:52;16.93;;;9.20;;
72791;SDS011;60907;53.268;8.764;2024-01-30T05:48:17;15.20;;;8.73;;
72791;SDS011;60907;53.268;8.764;2024-01-30T05:50:43;15.00;;;8.47;;
72791;SDS011;60907;53.268;8.764;2024-01-30T05:53:08;15.30;;;8.95;;
72791;SDS011;60907;53.268;8.764;2024-01-30T05:55:33;14.37;;;8.67;;
72791;SDS011;60907;53.268;8.764;2024-01-30T05:57:59;17.10;;;9.23;;
72791;SDS011;60907;53.268;8.764;2024-01-30T06:00:24;19.00;;;9.17;;
72791;SDS011;60907;53.268;8.764;2024-01-30T06:02:49;15.87;;;8.53;;
72791;SDS011;60907;53.268;8.764;2024-01-30T06:05:15;18.27;;;9.00;;
72791;SDS011;60907;53.268;8.764;2024-01-30T06:07:40;15.47;;;8.50;;
72791;SDS011;60907;53.268;8.764;2024-01-30T06:10:05;15.87;;;9.17;;
72791;SDS011;60907;53.268;8.764;2024-01-30T06:12:32;15.85;;;9.13;;
72791;SDS011;60907;53.268;8.764;2024-01-30T06:14:57;15.30;;;9.60;;
72791;SDS011;60907;53.268;8.764;2024-01-30T06:17:22;14.80;;;9.17;;
72791;SDS011;60907;53.268;8.764;2024-01-30T06:19:48;14.52;;;8.13;;
72791;SDS011;60907;53.268;8.764;2024-01-30T06:22:13;14.67;;;8.43;;
72791;SDS011;60907;53.268;8.764;2024-01-30T06:24:38;13.83;;;7.80;;
72791;SDS011;60907;53.268;8.764;2024-01-30T06:27:03;17.80;;;8.30;;
72791;SDS011;60907;53.268;8.764;2024-01-30T06:29:29;16.10;;;8.73;;
72791;SDS011;60907;53.268;8.764;2024-01-30T06:31:54;13.90;;;8.37;;
72791;SDS011;60907;53.268;8.764;2024-01-30T06:34:20;16.40;;;9.07;;
72791;SDS011;60907;53.268;8.764;2024-01-30T06:36:45;17.42;;;9.52;;
72791;SDS011;60907;53.268;8.764;2024-01-30T06:39:11;16.77;;;9.60;;
72791;SDS011;60907;53.268;8.764;2024-01-30T06:41:36;15.13;;;9.03;;
72791;SDS011;60907;53.268;8.764;2024-01-30T06:44:02;14.00;;;8.57;;
72791;SDS011;60907;53.268;8.764;2024-01-30T06:46:28;14.70;;;8.80;;
72791;SDS011;60907;53.268;8.764;2024-01-30T06:48:53;16.07;;;8.73;;
72791;SDS011;60907;53.268;8.764;2024-01-30T06:51:18;17.80;;;9.67;;
72791;SDS011;60907;53.268;8.764;2024-01-30T06:53:43;13.60;;;8.27;;
72791;SDS011;60907;53.268;8.764;2024-01-30T06:56:09;19.23;;;9.33;;
72791;SDS011;60907;53.268;8.764;2024-01-30T06:58:34;15.83;;;9.33;;
72791;SDS011;60907;53.268;8.764;2024-01-30T07:00:59;13.67;;;8.57;;
72791;SDS011;60907;53.268;8.764;2024-01-30T07:03:25;17.37;;;8.80;;
72791;SDS011;60907;53.268;8.764;2024-01-30T07:05:50;15.93;;;9.03;;
72791;SDS011;60907;53.268;8.764;2024-01-30T07:08:15;15.43;;;8.87;;
72791;SDS011;60907;53.268;8.764;2024-01-30T07:10:42;14.60;;;8.75;;
72791;SDS011;60907;53.268;8.764;2024-01-30T07:13:07;18.48;;;10.00;;
72791;SDS011;60907;53.268;8.764;2024-01-30T07:15:35;18.63;;;9.40;;
72791;SDS011;60907;53.268;8.764;2024-01-30T07:18:01;16.80;;;10.60;;
72791;SDS011;60907;53.268;8.764;2024-01-30T07:20:27;18.53;;;9.17;;
72791;SDS011;60907;53.268;8.764;2024-01-30T07:22:52;18.37;;;8.50;;
72791;SDS011;60907;53.268;8.764;2024-01-30T07:25:17;13.57;;;9.43;;
72791;SDS011;60907;53.268;8.764;2024-01-30T07:27:42;18.77;;;10.10;;
72791;SDS011;60907;53.268;8.764;2024-01-30T07:30:08;10.57;;;6.23;;
72791;SDS011;60907;53.268;8.764;2024-01-30T07:32:33;12.37;;;6.83;;
72791;SDS011;60907;53.268;8.764;2024-01-30T07:34:58;15.97;;;8.67;;
72791;SDS011;60907;53.268;8.764;2024-01-30T07:37:23;18.13;;;9.37;;
72791;SDS011;60907;53.268;8.764;2024-01-30T07:39:49;17.08;;;8.18;;
72791;SDS011;60907;53.268;8.764;2024-01-30T07:42:14;14.83;;;10.00;;
72791;SDS011;60907;53.268;8.764;2024-01-30T07:44:40;17.57;;;9.87;;
72791;SDS011;60907;53.268;8.764;2024-01-30T07:47:05;15.77;;;9.67;;
72791;SDS011;60907;53.268;8.764;2024-01-30T07:49:30;17.47;;;9.80;;
72791;SDS011;60907;53.268;8.764;2024-01-30T07:51:55;15.77;;;9.50;;
72791;SDS011;60907;53.268;8.764;2024-01-30T07:54:21;18.27;;;9.50;;
72791;SDS011;60907;53.268;8.764;2024-01-30T07:56:46;17.50;;;9.70;;
72791;SDS011;60907;53.268;8.764;2024-01-30T07:59:11;16.80;;;9.47;;
72791;SDS011;60907;53.268;8.764;2024-01-30T08:01:37;16.65;;;9.85;;
72791;SDS011;60907;53.268;8.764;2024-01-30T08:04:02;15.75;;;10.13;;
72791;SDS011;60907;53.268;8.764;2024-01-30T08:06:27;15.10;;;8.50;;
72791;SDS011;60907;53.268;8.764;2024-01-30T08:08:53;16.43;;;9.23;;
72791;SDS011;60907;53.268;8.764;2024-01-30T08:11:19;18.65;;;9.73;;
72791;SDS011;60907;53.268;8.764;2024-01-30T08:13:45;15.38;;;9.27;;
72791;SDS011;60907;53.268;8.764;2024-01-30T08:16:10;10.77;;;6.57;;
72791;SDS011;60907;53.268;8.764;2024-01-30T08:18:35;17.33;;;9.70;;
72791;SDS011;60907;53.268;8.764;2024-01-30T08:21:00;22.10;;;10.97;;
72791;SDS011;60907;53.268;8.764;2024-01-30T08:23:26;16.90;;;9.83;;
72791;SDS011;60907;53.268;8.764;2024-01-30T08:25:51;17.17;;;9.27;;
72791;SDS011;60907;53.268;8.764;2024-01-30T08:28:16;17.83;;;10.10;;
72791;SDS011;60907;53.268;8.764;2024-01-30T08:30:42;17.50;;;10.10;;
72791;SDS011;60907;53.268;8.764;2024-01-30T08:33:07;16.43;;;9.73;;
72791;SDS011;60907;53.268;8.764;2024-01-30T08:35:32;16.77;;;9.20;;
72791;SDS011;60907;53.268;8.764;2024-01-30T08:37:58;14.07;;;8.15;;
72791;SDS011;60907;53.268;8.764;2024-01-30T08:40:24;18.98;;;8.95;;
72791;SDS011;60907;53.268;8.764;2024-01-30T08:42:49;16.90;;;9.43;;
72791;SDS011;60907;53.268;8.764;2024-01-30T08:45:14;17.27;;;9.27;;
72791;SDS011;60907;53.268;8.764;2024-01-30T08:47:40;16.40;;;9.30;;
72791;SDS011;60907;53.268;8.764;2024-01-30T08:50:05;15.13;;;9.48;;
72791;SDS011;60907;53.268;8.764;2024-01-30T08:52:31;21.30;;;9.70;;
72791;SDS011;60907;53.268;8.764;2024-01-30T08:54:56;19.10;;;9.93;;
72791;SDS011;60907;53.268;8.764;2024-01-30T08:57:21;17.27;;;11.33;;
72791;SDS011;60907;53.268;8.764;2024-01-30T08:59:47;17.27;;;9.13;;
72791;SDS011;60907;53.268;8.764;2024-01-30T09:02:13;18.40;;;10.02;;
72791;SDS011;60907;53.268;8.764;2024-01-30T09:04:41;16.15;;;9.45;;
72791;SDS011;60907;53.268;8.764;2024-01-30T09:07:06;14.32;;;9.68;;
72791;SDS011;60907;53.268;8.764;2024-01-30T09:11:59;14.18;;;7.57;;
72791;SDS011;60907;53.268;8.764;2024-01-30T09:14:29;17.60;;;9.20;;
72791;SDS011;60907;53.268;8.764;2024-01-30T09:16:54;19.93;;;9.10;;
72791;SDS011;60907;53.268;8.764;2024-01-30T09:19:20;19.07;;;9.33;;
72791;SDS011;60907;53.268;8.764;2024-01-30T09:21:45;17.20;;;8.27;;
72791;SDS011;60907;53.268;8.764;2024-01-30T09:24:10;10.60;;;6.20;;
72791;SDS011;60907;53.268;8.764;2024-01-30T09:26:36;17.33;;;8.83;;
72791;SDS011;60907;53.268;8.764;2024-01-30T09:29:01;15.90;;;9.13;;
72791;SDS011;60907;53.268;8.764;2024-01-30T09:31:26;17.47;;;9.00;;
72791;SDS011;60907;53.268;8.764;2024-01-30T09:33:52;15.63;;;9.02;;
72791;SDS011;60907;53.268;8.764;2024-01-30T09:36:19;18.80;;;8.90;;
72791;SDS011;60907;53.268;8.764;2024-01-30T09:38:45;16.05;;;9.18;;
72791;SDS011;60907;53.268;8.764;2024-01-30T09:41:10;16.97;;;8.60;;
72791;SDS011;60907;53.268;8.764;2024-01-30T09:43:38;18.70;;;8.90;;
72791;SDS011;60907;53.268;8.764;2024-01-30T09:46:04;16.52;;;8.32;;
72791;SDS011;60907;53.268;8.764;2024-01-30T09:48:30;15.93;;;9.05;;
72791;SDS011;60907;53.268;8.764;2024-01-30T09:50:56;13.17;;;8.00;;
72791;SDS011;60907;53.268;8.764;2024-01-30T09:53:22;13.75;;;7.85;;
72791;SDS011;60907;53.268;8.764;2024-01-30T09:55:47;13.93;;;9.10;;
72791;SDS011;60907;53.268;8.764;2024-01-30T09:58:13;15.30;;;9.55;;
72791;SDS011;60907;53.268;8.764;2024-01-30T10:00:39;15.27;;;7.67;;
72791;SDS011;60907;53.268;8.764;2024-01-30T10:03:04;17.17;;;8.53;;
72791;SDS011;60907;53.268;8.764;2024-01-30T10:05:30;15.43;;;7.43;;
72791;SDS011;60907;53.268;8.764;2024-01-30T10:07:58;14.70;;;8.40;;
72791;SDS011;60907;53.268;8.764;2024-01-30T10:10:24;14.13;;;8.05;;
72791;SDS011;60907;53.268;8.764;2024-01-30T10:12:49;14.00;;;8.57;;
72791;SDS011;60907;53.268;8.764;2024-01-30T10:15:14;15.53;;;7.97;;
72791;SDS011;60907;53.268;8.764;2024-01-30T10:17:40;15.50;;;8.67;;
72791;SDS011;60907;53.268;8.764;2024-01-30T10:20:05;15.70;;;8.53;;
72791;SDS011;60907;53.268;8.764;2024-01-30T10:22:30;13.07;;;7.57;;
72791;SDS011;60907;53.268;8.764;2024-01-30T10:24:56;13.63;;;7.63;;
72791;SDS011;60907;53.268;8.764;2024-01-30T10:27:27;11.73;;;6.55;;
72791;SDS011;60907;53.268;8.764;2024-01-30T10:29:54;10.50;;;6.60;;
72791;SDS011;60907;53.268;8.764;2024-01-30T10:32:19;15.00;;;7.30;;
72791;SDS011;60907;53.268;8.764;2024-01-30T10:34:45;13.30;;;7.03;;
72791;SDS011;60907;53.268;8.764;2024-01-30T10:37:10;13.87;;;7.93;;
72791;SDS011;60907;53.268;8.764;2024-01-30T10:39:42;17.17;;;7.93;;
72791;SDS011;60907;53.268;8.764;2024-01-30T10:42:11;10.52;;;5.95;;
72791;SDS011;60907;53.268;8.764;2024-01-30T10:44:37;14.38;;;6.88;;
72791;SDS011;60907;53.268;8.764;2024-01-30T10:47:06;10.15;;;6.93;;
72791;SDS011;60907;53.268;8.764;2024-01-30T10:49:33;11.02;;;6.45;;
72791;SDS011;60907;53.268;8.764;2024-01-30T10:51:58;10.20;;;6.07;;
72791;SDS011;60907;53.268;8.764;2024-01-30T10:54:24;14.48;;;7.43;;
72791;SDS011;60907;53.268;8.764;2024-01-30T10:56:50;13.15;;;7.10;;
72791;SDS011;60907;53.268;8.764;2024-01-30T10:59:16;14.57;;;6.95;;
72791;SDS011;60907;53.268;8.764;2024-01-30T11:01:41;11.45;;;6.60;;
72791;SDS011;60907;53.268;8.764;2024-01-30T11:04:07;12.30;;;6.88;;
72791;SDS011;60907;53.268;8.764;2024-01-30T11:06:32;12.52;;;7.45;;
72791;SDS011;60907;53.268;8.764;2024-01-30T11:09:05;12.63;;;6.78;;
72791;SDS011;60907;53.268;8.764;2024-01-30T11:11:48;12.25;;;6.32;;
72791;SDS011;60907;53.268;8.764;2024-01-30T11:14:13;9.63;;;6.13;;
72791;SDS011;60907;53.268;8.764;2024-01-30T11:16:39;13.70;;;6.40;;
72791;SDS011;60907;53.268;8.764;2024-01-30T11:19:05;9.35;;;6.20;;
72791;SDS011;60907;53.268;8.764;2024-01-30T11:21:40;11.30;;;6.05;;
72791;SDS011;60907;53.268;8.764;2024-01-30T11:24:05;15.73;;;7.47;;
72791;SDS011;60907;53.268;8.764;2024-01-30T11:26:32;13.25;;;6.57;;
72791;SDS011;60907;53.268;8.764;2024-01-30T11:28:58;12.83;;;7.50;;
72791;SDS011;60907;53.268;8.764;2024-01-30T11:31:23;17.27;;;7.77;;
72791;SDS011;60907;53.268;8.764;2024-01-30T11:33:52;12.10;;;6.87;;
72791;SDS011;60907;53.268;8.764;2024-01-30T11:36:17;12.38;;;6.93;;
72791;SDS011;60907;53.268;8.764;2024-01-30T11:38:45;10.15;;;5.03;;
72791;SDS011;60907;53.268;8.764;2024-01-30T11:41:11;12.40;;;7.63;;
72791;SDS011;60907;53.268;8.764;2024-01-30T11:43:38;15.30;;;7.50;;
72791;SDS011;60907;53.268;8.764;2024-01-30T11:46:05;10.98;;;6.47;;
72791;SDS011;60907;53.268;8.764;2024-01-30T11:48:30;11.00;;;6.15;;
72791;SDS011;60907;53.268;8.764;2024-01-30T11:50:55;11.10;;;6.43;;
72791;SDS011;60907;53.268;8.764;2024-01-30T11:53:21;12.20;;;7.07;;
72791;SDS011;60907;53.268;8.764;2024-01-30T11:55:50;12.13;;;6.75;;
72791;SDS011;60907;53.268;8.764;2024-01-30T11:58:15;11.70;;;7.18;;
72791;SDS011;60907;53.268;8.764;2024-01-30T12:00:41;13.73;;;6.43;;
72791;SDS011;60907;53.268;8.764;2024-01-30T12:03:07;14.18;;;7.65;;
72791;SDS011;60907;53.268;8.764;2024-01-30T12:05:32;13.93;;;6.87;;
72791;SDS011;60907;53.268;8.764;2024-01-30T12:07:57;13.38;;;6.85;;
72791;SDS011;60907;53.268;8.764;2024-01-30T12:10:26;13.70;;;6.72;;
72791;SDS011;60907;53.268;8.764;2024-01-30T12:12:51;9.48;;;6.60;;
72791;SDS011;60907;53.268;8.764;2024-01-30T12:15:18;14.75;;;5.88;;
72791;SDS011;60907;53.268;8.764;2024-01-30T12:17:43;10.18;;;5.85;;
72791;SDS011;60907;53.268;8.764;2024-01-30T12:20:12;11.93;;;7.10;;
72791;SDS011;60907;53.268;8.764;2024-01-30T12:22:44;12.10;;;7.45;;
72791;SDS011;60907;53.268;8.764;2024-01-30T12:25:10;10.43;;;6.15;;
72791;SDS011;60907;53.268;8.764;2024-01-30T12:27:36;9.75;;;5.70;;
72791;SDS011;60907;53.268;8.764;2024-01-30T12:30:05;14.75;;;7.78;;
72791;SDS011;60907;53.268;8.764;2024-01-30T12:32:30;9.63;;;5.68;;
72791;SDS011;60907;53.268;8.764;2024-01-30T12:34:55;14.03;;;5.90;;
72791;SDS011;60907;53.268;8.764;2024-01-30T12:37:22;13.73;;;6.65;;
72791;SDS011;60907;53.268;8.764;2024-01-30T12:39:49;11.70;;;6.68;;
72791;SDS011;60907;53.268;8.764;2024-01-30T12:42:14;9.13;;;5.93;;
72791;SDS011;60907;53.268;8.764;2024-01-30T12:44:40;9.57;;;4.77;;
72791;SDS011;60907;53.268;8.764;2024-01-30T12:47:06;13.75;;;5.78;;
72791;SDS011;60907;53.268;8.764;2024-01-30T12:49:31;13.87;;;7.57;;
72791;SDS011;60907;53.268;8.764;2024-01-30T12:51:56;10.27;;;6.70;;
72791;SDS011;60907;53.268;8.764;2024-01-30T12:54:22;14.15;;;6.38;;
72791;SDS011;60907;53.268;8.764;2024-01-30T12:56:48;16.92;;;7.03;;
72791;SDS011;60907;53.268;8.764;2024-01-30T12:59:13;14.70;;;6.63;;
72791;SDS011;60907;53.268;8.764;2024-01-30T13:01:38;12.80;;;6.80;;
72791;SDS011;60907;53.268;8.764;2024-01-30T13:04:04;12.07;;;6.70;;
72791;SDS011;60907;53.268;8.764;2024-01-30T13:06:29;13.10;;;5.90;;
72791;SDS011;60907;53.268;8.764;2024-01-30T13:08:54;12.30;;;6.53;;
72791;SDS011;60907;53.268;8.764;2024-01-30T13:11:19;11.67;;;5.50;;
72791;SDS011;60907;53.268;8.764;2024-01-30T13:13:45;12.10;;;5.60;;
72791;SDS011;60907;53.268;8.764;2024-01-30T13:16:10;11.83;;;5.83;;
72791;SDS011;60907;53.268;8.764;2024-01-30T13:18:36;10.47;;;6.43;;
72791;SDS011;60907;53.268;8.764;2024-01-30T13:21:01;10.83;;;5.93;;
72791;SDS011;60907;53.268;8.764;2024-01-30T13:23:26;13.30;;;6.20;;
72791;SDS011;60907;53.268;8.764;2024-01-30T13:25:52;10.57;;;5.80;;
72791;SDS011;60907;53.268;8.764;2024-01-30T13:28:18;13.02;;;5.75;;
72791;SDS011;60907;53.268;8.764;2024-01-30T13:30:44;12.80;;;6.40;;
72791;SDS011;60907;53.268;8.764;2024-01-30T13:33:09;10.77;;;5.47;;
72791;SDS011;60907;53.268;8.764;2024-01-30T13:35:34;10.60;;;5.53;;
72791;SDS011;60907;53.268;8.764;2024-01-30T13:38:00;12.00;;;6.57;;
72791;SDS011;60907;53.268;8.764;2024-01-30T13:40:25;11.80;;;6.03;;
72791;SDS011;60907;53.268;8.764;2024-01-30T13:42:50;10.43;;;6.20;;
72791;SDS011;60907;53.268;8.764;2024-01-30T13:45:16;12.03;;;6.73;;
72791;SDS011;60907;53.268;8.764;2024-01-30T13:47:41;11.47;;;6.23;;
72791;SDS011;60907;53.268;8.764;2024-01-30T13:50:06;12.93;;;6.60;;
72791;SDS011;60907;53.268;8.764;2024-01-30T13:52:32;14.43;;;6.32;;
72791;SDS011;60907;53.268;8.764;2024-01-30T13:54:58;11.25;;;6.18;;
72791;SDS011;60907;53.268;8.764;2024-01-30T13:57:23;10.73;;;5.30;;
72791;SDS011;60907;53.268;8.764;2024-01-30T13:59:48;14.77;;;7.07;;
72791;SDS011;60907;53.268;8.764;2024-01-30T14:02:14;8.30;;;5.57;;
72791;SDS011;60907;53.268;8.764;2024-01-30T14:04:39;8.90;;;5.40;;
72791;SDS011;60907;53.268;8.764;2024-01-30T14:07:05;13.27;;;7.03;;
72791;SDS011;60907;53.268;8.764;2024-01-30T14:09:31;13.82;;;6.75;;
72791;SDS011;60907;53.268;8.764;2024-01-30T14:11:57;12.10;;;7.78;;
72791;SDS011;60907;53.268;8.764;2024-01-30T14:14:23;15.38;;;7.13;;
72791;SDS011;60907;53.268;8.764;2024-01-30T14:16:48;12.77;;;6.73;;
72791;SDS011;60907;53.268;8.764;2024-01-30T14:19:14;11.60;;;6.60;;
72791;SDS011;60907;53.268;8.764;2024-01-30T14:21:39;11.13;;;6.17;;
72791;SDS011;60907;53.268;8.764;2024-01-30T14:24:04;10.13;;;4.63;;
72791;SDS011;60907;53.268;8.764;2024-01-30T14:26:30;10.95;;;5.22;;